sensor_id;sensor_type;location;lat;lon;timestamp;pressure;altitude;pressure_sealevel;temperature;humidity
43298;BME280;28892;55.640;37.532;2023-04-08T00:00:10;99834.88;;;7.43;33.61
43298;BME280;28892;55.640;37.532;2023-04-08T00:02:38;99835.31;;;7.38;33.59
43298;BME280;28892;55.640;37.532;2023-04-08T00:05:05;99831.00;;;7.37;33.91
43298;BME280;28892;55.640;37.532;2023-04-08T00:07:31;99833.06;;;7.44;33.80
43298;BME280;28892;55.640;37.532;2023-04-08T00:09:56;99845.03;;;7.38;33.93
43298;BME280;28892;55.640;37.532;2023-04-08T00:12:22;99835.88;;;7.32;34.16
43298;BME280;28892;55.640;37.532;2023-04-08T00:14:48;99825.09;;;7.25;34.11
43298;BME280;28892;55.640;37.532;2023-04-08T00:17:14;99835.22;;;7.30;34.38
43298;BME280;28892;55.640;37.532;2023-04-08T00:19:40;99831.00;;;7.37;34.15
43298;BME280;28892;55.640;37.532;2023-04-08T00:22:05;99824.03;;;7.36;34.04
43298;BME280;28892;55.640;37.532;2023-04-08T00:24:31;99831.47;;;7.23;34.06
43298;BME280;28892;55.640;37.532;2023-04-08T00:26:57;99838.56;;;7.22;34.34
43298;BME280;28892;55.640;37.532;2023-04-08T00:29:23;99829.00;;;7.21;34.64
43298;BME280;28892;55.640;37.532;2023-04-08T00:31:48;99828.72;;;7.15;34.74
43298;BME280;28892;55.640;37.532;2023-04-08T00:34:14;99832.88;;;7.17;34.94
43298;BME280;28892;55.640;37.532;2023-04-08T00:36:40;99817.09;;;7.07;34.84
43298;BME280;28892;55.640;37.532;2023-04-08T00:39:05;99824.72;;;7.10;34.69
43298;BME280;28892;55.640;37.532;2023-04-08T00:41:33;99831.81;;;7.10;35.05
43298;BME280;28892;55.640;37.532;2023-04-08T00:43:59;99840.97;;;7.16;35.12
43298;BME280;28892;55.640;37.532;2023-04-08T00:46:26;99829.44;;;7.17;34.99
43298;BME280;28892;55.640;37.532;2023-04-08T00:48:52;99841.41;;;7.11;35.42
43298;BME280;28892;55.640;37.532;2023-04-08T00:51:21;99825.03;;;7.07;35.26
43298;BME280;28892;55.640;37.532;2023-04-08T00:53:47;99818.75;;;7.08;35.17
43298;BME280;28892;55.640;37.532;2023-04-08T00:56:12;99834.28;;;7.11;35.62
43298;BME280;28892;55.640;37.532;2023-04-08T00:58:38;99839.56;;;7.11;35.43
43298;BME280;28892;55.640;37.532;2023-04-08T01:01:11;99846.50;;;7.12;35.52
43298;BME280;28892;55.640;37.532;2023-04-08T01:09:04;99834.53;;;7.18;35.48
43298;BME280;28892;55.640;37.532;2023-04-08T01:11:31;99836.00;;;7.03;35.57
43298;BME280;28892;55.640;37.532;2023-04-08T01:14:01;99837.22;;;7.08;35.40
43298;BME280;28892;55.640;37.532;2023-04-08T01:16:31;99834.47;;;7.00;35.64
43298;BME280;28892;55.640;37.532;2023-04-08T01:18:57;99835.06;;;6.94;35.73
43298;BME280;28892;55.640;37.532;2023-04-08T01:21:23;99841.03;;;6.86;36.21
43298;BME280;28892;55.640;37.532;2023-04-08T01:24:11;99840.00;;;7.07;35.86
43298;BME280;28892;55.640;37.532;2023-04-08T01:26:39;99831.63;;;6.83;35.96
43298;BME280;28892;55.640;37.532;2023-04-08T01:29:06;99833.13;;;6.86;36.56
43298;BME280;28892;55.640;37.532;2023-04-08T01:31:35;99830.59;;;6.94;36.20
43298;BME280;28892;55.640;37.532;2023-04-08T01:34:02;99827.28;;;6.82;36.34
43298;BME280;28892;55.640;37.532;2023-04-08T01:36:31;99835.50;;;6.79;36.33
43298;BME280;28892;55.640;37.532;2023-04-08T01:39:01;99825.38;;;6.75;36.21
43298;BME280;28892;55.640;37.532;2023-04-08T01:41:28;99832.31;;;6.76;36.45
43298;BME280;28892;55.640;37.532;2023-04-08T01:43:57;99833.03;;;6.58;36.74
43298;BME280;28892;55.640;37.532;2023-04-08T01:46:23;99825.53;;;6.63;37.01
43298;BME280;28892;55.640;37.532;2023-04-08T01:48:50;99818.59;;;6.62;36.53
43298;BME280;28892;55.640;37.532;2023-04-08T01:51:17;99821.78;;;6.66;36.42
43298;BME280;28892;55.640;37.532;2023-04-08T01:53:44;99826.09;;;6.67;36.76
43298;BME280;28892;55.640;37.532;2023-04-08T01:56:11;99821.50;;;6.69;37.06
43298;BME280;28892;55.640;37.532;2023-04-08T01:58:42;99822.06;;;6.73;36.75
43298;BME280;28892;55.640;37.532;2023-04-08T02:01:12;99830.00;;;6.63;37.11
43298;BME280;28892;55.640;37.532;2023-04-08T02:03:40;99839.13;;;6.59;37.41
43298;BME280;28892;55.640;37.532;2023-04-08T02:06:07;99833.59;;;6.52;37.10
43298;BME280;28892;55.640;37.532;2023-04-08T02:08:33;99835.13;;;6.45;37.74
43298;BME280;28892;55.640;37.532;2023-04-08T02:11:01;99836.66;;;6.57;37.02
43298;BME280;28892;55.640;37.532;2023-04-08T02:13:28;99829.31;;;6.41;37.48
43298;BME280;28892;55.640;37.532;2023-04-08T02:16:22;99833.03;;;6.48;37.43
43298;BME280;28892;55.640;37.532;2023-04-08T02:19:07;99829.44;;;6.49;37.70
43298;BME280;28892;55.640;37.532;2023-04-08T02:21:45;99835.53;;;6.50;37.57
43298;BME280;28892;55.640;37.532;2023-04-08T02:24:12;99827.38;;;6.43;37.66
43298;BME280;28892;55.640;37.532;2023-04-08T02:26:49;99826.69;;;6.21;37.80
43298;BME280;28892;55.640;37.532;2023-04-08T02:29:18;99818.22;;;6.18;38.15
43298;BME280;28892;55.640;37.532;2023-04-08T02:31:47;99835.84;;;6.27;38.27
43298;BME280;28892;55.640;37.532;2023-04-08T02:34:14;99834.56;;;6.11;38.11
43298;BME280;28892;55.640;37.532;2023-04-08T02:36:42;99843.47;;;6.20;38.55
43298;BME280;28892;55.640;37.532;2023-04-08T02:39:11;99833.63;;;6.22;38.12
43298;BME280;28892;55.640;37.532;2023-04-08T02:41:37;99836.66;;;6.27;38.44
43298;BME280;28892;55.640;37.532;2023-04-08T02:44:03;99846.38;;;6.27;38.17
43298;BME280;28892;55.640;37.532;2023-04-08T02:46:29;99827.66;;;6.20;38.09
43298;BME280;28892;55.640;37.532;2023-04-08T02:48:55;99846.53;;;6.35;38.26
43298;BME280;28892;55.640;37.532;2023-04-08T02:51:20;99847.63;;;6.33;38.63
43298;BME280;28892;55.640;37.532;2023-04-08T02:53:46;99841.66;;;6.31;38.13
43298;BME280;28892;55.640;37.532;2023-04-08T02:56:14;99852.91;;;6.33;38.24
43298;BME280;28892;55.640;37.532;2023-04-08T02:58:40;99848.31;;;6.35;37.99
43298;BME280;28892;55.640;37.532;2023-04-08T03:01:06;99849.00;;;6.27;38.45
43298;BME280;28892;55.640;37.532;2023-04-08T03:03:33;99856.63;;;6.20;38.34
43298;BME280;28892;55.640;37.532;2023-04-08T03:05:59;99841.53;;;6.22;38.19
43298;BME280;28892;55.640;37.532;2023-04-08T03:08:24;99843.72;;;6.07;38.94
43298;BME280;28892;55.640;37.532;2023-04-08T03:10:50;99842.63;;;6.20;38.20
43298;BME280;28892;55.640;37.532;2023-04-08T03:13:16;99849.72;;;6.19;38.70
43298;BME280;28892;55.640;37.532;2023-04-08T03:15:42;99854.25;;;6.17;38.63
43298;BME280;28892;55.640;37.532;2023-04-08T03:18:08;99856.34;;;6.23;38.39
43298;BME280;28892;55.640;37.532;2023-04-08T03:20:33;99844.28;;;6.21;38.48
43298;BME280;28892;55.640;37.532;2023-04-08T03:22:59;99845.09;;;6.11;38.64
43298;BME280;28892;55.640;37.532;2023-04-08T03:25:25;99858.44;;;6.20;38.69
43298;BME280;28892;55.640;37.532;2023-04-08T03:27:51;99852.31;;;6.09;38.99
43298;BME280;28892;55.640;37.532;2023-04-08T03:30:17;99846.22;;;6.19;39.10
43298;BME280;28892;55.640;37.532;2023-04-08T03:32:43;99841.09;;;6.17;38.76
43298;BME280;28892;55.640;37.532;2023-04-08T03:35:08;99853.72;;;6.23;38.80
43298;BME280;28892;55.640;37.532;2023-04-08T03:37:34;99856.91;;;6.27;38.73
43298;BME280;28892;55.640;37.532;2023-04-08T03:40:00;99856.47;;;6.22;38.91
43298;BME280;28892;55.640;37.532;2023-04-08T03:42:26;99852.19;;;6.11;38.91
43298;BME280;28892;55.640;37.532;2023-04-08T03:44:52;99849.97;;;6.06;39.04
43298;BME280;28892;55.640;37.532;2023-04-08T03:47:17;99852.34;;;6.19;38.95
43298;BME280;28892;55.640;37.532;2023-04-08T03:49:43;99860.78;;;6.23;38.82
43298;BME280;28892;55.640;37.532;2023-04-08T03:52:09;99855.09;;;6.18;39.03
43298;BME280;28892;55.640;37.532;2023-04-08T03:54:35;99854.69;;;6.12;39.31
43298;BME280;28892;55.640;37.532;2023-04-08T03:57:00;99859.41;;;6.19;38.88
43298;BME280;28892;55.640;37.532;2023-04-08T03:59:26;99861.34;;;6.17;39.14
43298;BME280;28892;55.640;37.532;2023-04-08T04:01:52;99858.72;;;6.17;39.71
43298;BME280;28892;55.640;37.532;2023-04-08T04:04:20;99853.16;;;6.20;39.20
43298;BME280;28892;55.640;37.532;2023-04-08T04:06:48;99859.13;;;6.22;39.17
43298;BME280;28892;55.640;37.532;2023-04-08T04:09:14;99869.53;;;6.33;39.39
43298;BME280;28892;55.640;37.532;2023-04-08T04:11:41;99870.91;;;6.18;39.56
43298;BME280;28892;55.640;37.532;2023-04-08T04:14:06;99857.34;;;6.22;39.74
43298;BME280;28892;55.640;37.532;2023-04-08T04:16:32;99862.31;;;6.45;40.04
43298;BME280;28892;55.640;37.532;2023-04-08T04:18:58;99868.56;;;6.44;39.28
43298;BME280;28892;55.640;37.532;2023-04-08T04:21:24;99859.97;;;6.42;39.44
43298;BME280;28892;55.640;37.532;2023-04-08T04:23:50;99857.19;;;6.34;39.76
43298;BME280;28892;55.640;37.532;2023-04-08T04:26:16;99875.09;;;6.50;39.21
43298;BME280;28892;55.640;37.532;2023-04-08T04:28:41;99868.28;;;6.57;39.17
43298;BME280;28892;55.640;37.532;2023-04-08T04:31:07;99868.28;;;6.67;39.22
43298;BME280;28892;55.640;37.532;2023-04-08T04:33:33;99868.69;;;6.62;39.00
43298;BME280;28892;55.640;37.532;2023-04-08T04:35:59;99872.84;;;6.65;39.29
43298;BME280;28892;55.640;37.532;2023-04-08T04:38:25;99866.16;;;6.80;38.84
43298;BME280;28892;55.640;37.532;2023-04-08T04:40:51;99872.00;;;6.94;38.82
43298;BME280;28892;55.640;37.532;2023-04-08T04:43:17;99874.03;;;7.00;38.78
43298;BME280;28892;55.640;37.532;2023-04-08T04:45:43;99874.28;;;7.17;38.12
43298;BME280;28892;55.640;37.532;2023-04-08T04:48:09;99866.56;;;7.33;38.29
43298;BME280;28892;55.640;37.532;2023-04-08T04:50:35;99871.28;;;7.39;38.02
43298;BME280;28892;55.640;37.532;2023-04-08T04:53:01;99883.41;;;7.60;37.82
43298;BME280;28892;55.640;37.532;2023-04-08T04:55:32;99873.00;;;7.87;37.21
43298;BME280;28892;55.640;37.532;2023-04-08T04:58:03;99869.91;;;7.91;37.37
43298;BME280;28892;55.640;37.532;2023-04-08T05:00:29;99878.88;;;7.99;37.47
43298;BME280;28892;55.640;37.532;2023-04-08T05:02:55;99873.78;;;8.15;36.91
43298;BME280;28892;55.640;37.532;2023-04-08T05:05:21;99879.38;;;8.30;36.98
43298;BME280;28892;55.640;37.532;2023-04-08T05:07:57;99880.50;;;8.46;37.08
43298;BME280;28892;55.640;37.532;2023-04-08T05:10:23;99893.81;;;8.72;36.54
43298;BME280;28892;55.640;37.532;2023-04-08T05:12:49;99895.00;;;8.78;36.94
43298;BME280;28892;55.640;37.532;2023-04-08T05:15:14;99894.03;;;9.05;36.76
43298;BME280;28892;55.640;37.532;2023-04-08T05:17:40;99890.88;;;9.02;36.53
43298;BME280;28892;55.640;37.532;2023-04-08T05:20:09;99892.59;;;9.11;36.85
43298;BME280;28892;55.640;37.532;2023-04-08T05:22:35;99900.84;;;9.34;36.40
43298;BME280;28892;55.640;37.532;2023-04-08T05:25:01;99890.25;;;9.34;36.28
43298;BME280;28892;55.640;37.532;2023-04-08T05:27:29;99896.50;;;9.68;35.96
43298;BME280;28892;55.640;37.532;2023-04-08T05:29:55;99894.59;;;9.87;35.14
43298;BME280;28892;55.640;37.532;2023-04-08T05:32:20;99901.34;;;9.73;35.61
43298;BME280;28892;55.640;37.532;2023-04-08T05:34:46;99911.41;;;10.12;35.42
43298;BME280;28892;55.640;37.532;2023-04-08T05:37:12;99903.28;;;10.22;34.76
43298;BME280;28892;55.640;37.532;2023-04-08T05:39:40;99902.19;;;10.50;34.80
43298;BME280;28892;55.640;37.532;2023-04-08T05:42:07;99901.56;;;10.64;34.34
43298;BME280;28892;55.640;37.532;2023-04-08T05:44:36;99902.88;;;10.76;34.66
43298;BME280;28892;55.640;37.532;2023-04-08T05:47:06;99908.34;;;10.67;34.45
43298;BME280;28892;55.640;37.532;2023-04-08T05:49:40;99905.53;;;10.85;34.12
43298;BME280;28892;55.640;37.532;2023-04-08T05:52:06;99907.50;;;10.91;34.03
43298;BME280;28892;55.640;37.532;2023-04-08T05:54:32;99894.59;;;10.88;34.71
43298;BME280;28892;55.640;37.532;2023-04-08T05:56:58;99901.16;;;10.34;35.02
43298;BME280;28892;55.640;37.532;2023-04-08T05:59:24;99906.53;;;10.59;34.65
43298;BME280;28892;55.640;37.532;2023-04-08T06:01:49;99909.66;;;11.04;33.91
43298;BME280;28892;55.640;37.532;2023-04-08T06:04:15;99912.44;;;11.27;33.83
43298;BME280;28892;55.640;37.532;2023-04-08T06:06:42;99908.81;;;11.20;33.62
43298;BME280;28892;55.640;37.532;2023-04-08T06:09:08;99914.31;;;11.58;33.62
43298;BME280;28892;55.640;37.532;2023-04-08T06:11:36;99903.69;;;11.67;33.89
43298;BME280;28892;55.640;37.532;2023-04-08T06:14:02;99900.72;;;11.93;33.15
43298;BME280;28892;55.640;37.532;2023-04-08T06:16:28;99914.84;;;12.02;33.28
43298;BME280;28892;55.640;37.532;2023-04-08T06:18:54;99901.03;;;11.58;33.24
43298;BME280;28892;55.640;37.532;2023-04-08T06:21:20;99909.47;;;12.10;32.83
43298;BME280;28892;55.640;37.532;2023-04-08T06:23:46;99909.22;;;12.52;32.51
43298;BME280;28892;55.640;37.532;2023-04-08T06:26:15;99906.34;;;12.77;32.35
43298;BME280;28892;55.640;37.532;2023-04-08T06:28:40;99902.34;;;12.81;32.12
43298;BME280;28892;55.640;37.532;2023-04-08T06:31:06;99905.59;;;12.44;32.09
43298;BME280;28892;55.640;37.532;2023-04-08T06:33:32;99906.28;;;12.47;32.54
43298;BME280;28892;55.640;37.532;2023-04-08T06:36:04;99907.75;;;12.26;32.38
43298;BME280;28892;55.640;37.532;2023-04-08T06:38:31;99911.84;;;11.97;33.08
43298;BME280;28892;55.640;37.532;2023-04-08T06:41:03;99899.63;;;12.42;32.51
43298;BME280;28892;55.640;37.532;2023-04-08T06:43:29;99908.91;;;12.70;32.00
43298;BME280;28892;55.640;37.532;2023-04-08T06:45:55;99902.00;;;12.37;32.46
43298;BME280;28892;55.640;37.532;2023-04-08T06:48:23;99904.09;;;12.89;31.96
43298;BME280;28892;55.640;37.532;2023-04-08T06:50:59;99902.72;;;12.54;31.55
43298;BME280;28892;55.640;37.532;2023-04-08T06:53:26;99913.66;;;12.05;33.04
43298;BME280;28892;55.640;37.532;2023-04-08T06:55:54;99911.97;;;12.35;32.44
43298;BME280;28892;55.640;37.532;2023-04-08T06:58:20;99903.28;;;11.78;33.22
43298;BME280;28892;55.640;37.532;2023-04-08T07:00:48;99907.13;;;12.39;32.43
43298;BME280;28892;55.640;37.532;2023-04-08T07:03:14;99908.84;;;12.78;32.11
43298;BME280;28892;55.640;37.532;2023-04-08T07:05:42;99908.25;;;13.21;31.26
43298;BME280;28892;55.640;37.532;2023-04-08T07:08:08;99905.16;;;13.33;30.75
43298;BME280;28892;55.640;37.532;2023-04-08T07:10:34;99898.91;;;13.71;30.69
43298;BME280;28892;55.640;37.532;2023-04-08T07:13:00;99898.53;;;13.89;30.47
43298;BME280;28892;55.640;37.532;2023-04-08T07:15:26;99901.25;;;14.10;30.08
43298;BME280;28892;55.640;37.532;2023-04-08T07:17:52;99892.09;;;13.98;30.38
43298;BME280;28892;55.640;37.532;2023-04-08T07:20:24;99902.66;;;13.91;30.19
43298;BME280;28892;55.640;37.532;2023-04-08T07:22:50;99894.09;;;13.96;30.23
43298;BME280;28892;55.640;37.532;2023-04-08T07:25:17;99910.56;;;13.85;30.33
43298;BME280;28892;55.640;37.532;2023-04-08T07:27:42;99899.66;;;13.79;30.10
43298;BME280;28892;55.640;37.532;2023-04-08T07:30:08;99900.69;;;13.63;30.50
43298;BME280;28892;55.640;37.532;2023-04-08T07:32:34;99904.72;;;13.29;31.01
43298;BME280;28892;55.640;37.532;2023-04-08T07:35:01;99902.22;;;13.27;31.19
43298;BME280;28892;55.640;37.532;2023-04-08T07:37:28;99909.66;;;13.17;30.90
43298;BME280;28892;55.640;37.532;2023-04-08T07:39:54;99896.06;;;13.12;31.25
43298;BME280;28892;55.640;37.532;2023-04-08T07:42:19;99907.69;;;13.11;31.17
43298;BME280;28892;55.640;37.532;2023-04-08T07:44:46;99910.16;;;12.97;31.14
43298;BME280;28892;55.640;37.532;2023-04-08T07:47:12;99900.19;;;13.30;31.05
43298;BME280;28892;55.640;37.532;2023-04-08T07:49:41;99898.84;;;13.49;30.79
43298;BME280;28892;55.640;37.532;2023-04-08T07:52:06;99900.69;;;13.48;31.09
43298;BME280;28892;55.640;37.532;2023-04-08T07:54:32;99901.84;;;13.91;30.53
43298;BME280;28892;55.640;37.532;2023-04-08T07:57:01;99892.81;;;13.92;30.32
43298;BME280;28892;55.640;37.532;2023-04-08T07:59:27;99898.69;;;14.02;30.66
43298;BME280;28892;55.640;37.532;2023-04-08T08:01:53;99908.75;;;14.22;30.27
43298;BME280;28892;55.640;37.532;2023-04-08T08:04:20;99899.69;;;14.38;29.92
43298;BME280;28892;55.640;37.532;2023-04-08T08:06:46;99896.63;;;14.41;29.87
43298;BME280;28892;55.640;37.532;2023-04-08T08:09:12;99883.84;;;14.80;29.28
43298;BME280;28892;55.640;37.532;2023-04-08T08:11:38;99893.91;;;15.06;28.72
43298;BME280;28892;55.640;37.532;2023-04-08T08:14:04;99885.53;;;15.16;29.17
43298;BME280;28892;55.640;37.532;2023-04-08T08:16:30;99894.19;;;15.54;29.04
43298;BME280;28892;55.640;37.532;2023-04-08T08:18:57;99888.16;;;15.87;28.38
43298;BME280;28892;55.640;37.532;2023-04-08T08:21:23;99890.56;;;16.37;27.87
43298;BME280;28892;55.640;37.532;2023-04-08T08:23:52;99885.00;;;16.39;27.54
43298;BME280;28892;55.640;37.532;2023-04-08T08:26:18;99893.06;;;16.66;27.60
43298;BME280;28892;55.640;37.532;2023-04-08T08:28:45;99893.06;;;17.06;26.90
43298;BME280;28892;55.640;37.532;2023-04-08T08:31:11;99886.78;;;17.46;26.79
43298;BME280;28892;55.640;37.532;2023-04-08T08:33:37;99885.66;;;17.74;26.06
43298;BME280;28892;55.640;37.532;2023-04-08T08:36:03;99881.03;;;17.95;25.46
43298;BME280;28892;55.640;37.532;2023-04-08T08:38:32;99887.91;;;17.77;25.57
43298;BME280;28892;55.640;37.532;2023-04-08T08:40:59;99882.53;;;16.57;25.86
43298;BME280;28892;55.640;37.532;2023-04-08T08:43:26;99876.28;;;16.03;27.19
43298;BME280;28892;55.640;37.532;2023-04-08T08:46:00;99887.88;;;16.37;27.56
43298;BME280;28892;55.640;37.532;2023-04-08T08:48:26;99878.59;;;17.21;25.71
43298;BME280;28892;55.640;37.532;2023-04-08T08:50:52;99878.00;;;16.78;26.02
43298;BME280;28892;55.640;37.532;2023-04-08T08:53:18;99875.06;;;16.05;27.00
43298;BME280;28892;55.640;37.532;2023-04-08T08:55:47;99876.97;;;16.59;26.63
43298;BME280;28892;55.640;37.532;2023-04-08T08:58:14;99870.53;;;17.34;25.83
43298;BME280;28892;55.640;37.532;2023-04-08T09:00:41;99878.41;;;18.20;25.28
43298;BME280;28892;55.640;37.532;2023-04-08T09:03:18;99860.59;;;18.58;24.38
43298;BME280;28892;55.640;37.532;2023-04-08T09:05:50;99866.78;;;18.59;24.51
43298;BME280;28892;55.640;37.532;2023-04-08T09:08:28;99851.72;;;18.57;23.79
43298;BME280;28892;55.640;37.532;2023-04-08T09:11:09;99864.44;;;18.69;24.17
43298;BME280;28892;55.640;37.532;2023-04-08T09:13:35;99866.47;;;18.74;23.45
43298;BME280;28892;55.640;37.532;2023-04-08T09:16:07;99868.84;;;19.07;23.99
43298;BME280;28892;55.640;37.532;2023-04-08T09:18:34;99871.69;;;19.50;23.06
43298;BME280;28892;55.640;37.532;2023-04-08T09:21:01;99885.00;;;19.26;22.69
43298;BME280;28892;55.640;37.532;2023-04-08T09:23:43;99874.78;;;19.16;23.24
43298;BME280;28892;55.640;37.532;2023-04-08T09:26:20;99873.53;;;17.65;24.48
43298;BME280;28892;55.640;37.532;2023-04-08T09:29:10;99863.56;;;16.25;25.30
43298;BME280;28892;55.640;37.532;2023-04-08T09:31:52;99876.34;;;16.84;25.79
43298;BME280;28892;55.640;37.532;2023-04-08T09:34:18;99871.06;;;17.56;25.01
43298;BME280;28892;55.640;37.532;2023-04-08T09:36:55;99866.28;;;18.18;24.58
43298;BME280;28892;55.640;37.532;2023-04-08T09:39:21;99870.50;;;18.32;23.88
43298;BME280;28892;55.640;37.532;2023-04-08T09:41:49;99868.56;;;18.71;24.05
43298;BME280;28892;55.640;37.532;2023-04-08T09:44:19;99864.03;;;18.91;23.82
43298;BME280;28892;55.640;37.532;2023-04-08T09:49:28;99862.41;;;17.61;24.86
43298;BME280;28892;55.640;37.532;2023-04-08T09:52:10;99858.66;;;18.40;24.34
43298;BME280;28892;55.640;37.532;2023-04-08T09:54:54;99863.56;;;18.75;23.92
43298;BME280;28892;55.640;37.532;2023-04-08T09:58:07;99859.09;;;18.37;24.59
43298;BME280;28892;55.640;37.532;2023-04-08T10:00:45;99846.88;;;18.66;24.14
43298;BME280;28892;55.640;37.532;2023-04-08T10:05:52;99853.91;;;18.67;23.73
43298;BME280;28892;55.640;37.532;2023-04-08T10:08:18;99858.94;;;18.57;24.42
43298;BME280;28892;55.640;37.532;2023-04-08T10:10:45;99865.31;;;18.37;24.28
43298;BME280;28892;55.640;37.532;2023-04-08T10:13:11;99853.88;;;18.42;24.55
43298;BME280;28892;55.640;37.532;2023-04-08T10:15:37;99832.53;;;18.98;24.25
43298;BME280;28892;55.640;37.532;2023-04-08T10:23:04;99852.97;;;19.24;23.39
43298;BME280;28892;55.640;37.532;2023-04-08T10:25:39;99852.59;;;19.21;23.65
43298;BME280;28892;55.640;37.532;2023-04-08T10:30:53;99852.69;;;18.89;23.60
43298;BME280;28892;55.640;37.532;2023-04-08T10:36:08;99838.59;;;17.26;25.61
43298;BME280;28892;55.640;37.532;2023-04-08T10:38:35;99848.84;;;17.42;25.32
43298;BME280;28892;55.640;37.532;2023-04-08T10:41:00;99844.22;;;18.02;24.88
43298;BME280;28892;55.640;37.532;2023-04-08T10:43:33;99832.38;;;18.49;24.71
43298;BME280;28892;55.640;37.532;2023-04-08T10:45:59;99842.91;;;18.18;25.34
43298;BME280;28892;55.640;37.532;2023-04-08T10:48:25;99834.59;;;18.77;24.52
43298;BME280;28892;55.640;37.532;2023-04-08T10:51:03;99837.28;;;19.21;24.19
43298;BME280;28892;55.640;37.532;2023-04-08T10:53:34;99822.03;;;17.81;25.08
43298;BME280;28892;55.640;37.532;2023-04-08T10:56:08;99830.81;;;18.34;25.67
43298;BME280;28892;55.640;37.532;2023-04-08T10:58:35;99819.59;;;18.88;24.50
43298;BME280;28892;55.640;37.532;2023-04-08T11:01:05;99815.38;;;19.36;24.24
43298;BME280;28892;55.640;37.532;2023-04-08T11:03:32;99810.97;;;19.23;23.94
43298;BME280;28892;55.640;37.532;2023-04-08T11:06:00;99820.28;;;19.58;23.94
43298;BME280;28892;55.640;37.532;2023-04-08T11:08:36;99800.75;;;19.51;23.80
43298;BME280;28892;55.640;37.532;2023-04-08T11:11:02;99810.81;;;18.81;24.85
43298;BME280;28892;55.640;37.532;2023-04-08T11:13:30;99806.09;;;18.95;23.87
43298;BME280;28892;55.640;37.532;2023-04-08T11:15:58;99807.91;;;19.38;23.23
43298;BME280;28892;55.640;37.532;2023-04-08T11:18:25;99815.50;;;19.60;23.02
43298;BME280;28892;55.640;37.532;2023-04-08T11:20:52;99800.84;;;19.25;23.40
43298;BME280;28892;55.640;37.532;2023-04-08T11:23:19;99795.97;;;17.95;25.05
43298;BME280;28892;55.640;37.532;2023-04-08T11:25:45;99812.25;;;18.00;25.08
43298;BME280;28892;55.640;37.532;2023-04-08T11:28:13;99796.38;;;16.94;26.61
43298;BME280;28892;55.640;37.532;2023-04-08T11:30:39;99798.72;;;17.82;25.67
43298;BME280;28892;55.640;37.532;2023-04-08T11:33:12;99793.63;;;18.38;25.24
43298;BME280;28892;55.640;37.532;2023-04-08T11:35:41;99799.00;;;18.82;24.49
43298;BME280;28892;55.640;37.532;2023-04-08T11:38:08;99799.44;;;18.97;24.51
43298;BME280;28892;55.640;37.532;2023-04-08T11:40:35;99788.50;;;19.18;24.17
43298;BME280;28892;55.640;37.532;2023-04-08T11:43:11;99794.72;;;19.67;23.86
43298;BME280;28892;55.640;37.532;2023-04-08T11:45:38;99784.63;;;18.51;24.93
43298;BME280;28892;55.640;37.532;2023-04-08T11:48:12;99793.66;;;18.06;25.50
43298;BME280;28892;55.640;37.532;2023-04-08T11:50:39;99791.03;;;17.08;26.49
43298;BME280;28892;55.640;37.532;2023-04-08T11:53:19;99790.81;;;17.02;27.04
43298;BME280;28892;55.640;37.532;2023-04-08T11:55:45;99787.00;;;17.76;25.86
43298;BME280;28892;55.640;37.532;2023-04-08T11:58:11;99777.34;;;18.33;24.71
43298;BME280;28892;55.640;37.532;2023-04-08T12:00:37;99786.34;;;18.45;25.13
43298;BME280;28892;55.640;37.532;2023-04-08T12:03:04;99767.84;;;18.55;24.74
43298;BME280;28892;55.640;37.532;2023-04-08T12:05:31;99781.88;;;18.57;24.79
43298;BME280;28892;55.640;37.532;2023-04-08T12:07:56;99787.53;;;18.49;25.14
43298;BME280;28892;55.640;37.532;2023-04-08T12:10:22;99768.41;;;18.39;24.88
43298;BME280;28892;55.640;37.532;2023-04-08T12:12:50;99766.63;;;18.26;25.56
43298;BME280;28892;55.640;37.532;2023-04-08T12:15:16;99761.06;;;18.27;25.29
43298;BME280;28892;55.640;37.532;2023-04-08T12:17:42;99774.91;;;17.21;25.97
43298;BME280;28892;55.640;37.532;2023-04-08T12:20:11;99777.41;;;16.96;26.58
43298;BME280;28892;55.640;37.532;2023-04-08T12:22:38;99766.28;;;17.58;25.97
43298;BME280;28892;55.640;37.532;2023-04-08T12:25:04;99764.84;;;17.87;25.54
43298;BME280;28892;55.640;37.532;2023-04-08T12:27:31;99762.13;;;17.94;25.41
43298;BME280;28892;55.640;37.532;2023-04-08T12:30:01;99772.03;;;17.94;25.87
43298;BME280;28892;55.640;37.532;2023-04-08T12:32:28;99751.44;;;17.87;25.91
43298;BME280;28892;55.640;37.532;2023-04-08T12:34:54;99751.72;;;17.72;26.25
43298;BME280;28892;55.640;37.532;2023-04-08T12:37:20;99762.16;;;17.87;25.94
43298;BME280;28892;55.640;37.532;2023-04-08T12:39:46;99746.56;;;17.78;25.92
43298;BME280;28892;55.640;37.532;2023-04-08T12:42:13;99755.47;;;17.71;26.07
43298;BME280;28892;55.640;37.532;2023-04-08T12:44:39;99755.16;;;17.86;25.94
43298;BME280;28892;55.640;37.532;2023-04-08T12:47:05;99738.06;;;16.96;26.94
43298;BME280;28892;55.640;37.532;2023-04-08T12:49:31;99741.25;;;17.25;26.74
43298;BME280;28892;55.640;37.532;2023-04-08T12:51:59;99739.53;;;17.38;26.41
43298;BME280;28892;55.640;37.532;2023-04-08T12:54:27;99731.53;;;17.31;26.36
43298;BME280;28892;55.640;37.532;2023-04-08T12:57:02;99730.56;;;17.18;26.60
43298;BME280;28892;55.640;37.532;2023-04-08T12:59:39;99727.75;;;17.00;26.71
43298;BME280;28892;55.640;37.532;2023-04-08T13:02:06;99735.63;;;16.81;27.42
43298;BME280;28892;55.640;37.532;2023-04-08T13:04:32;99733.34;;;16.78;27.03
43298;BME280;28892;55.640;37.532;2023-04-08T13:06:57;99742.28;;;16.58;27.27
43298;BME280;28892;55.640;37.532;2023-04-08T13:09:24;99729.34;;;16.22;27.76
43298;BME280;28892;55.640;37.532;2023-04-08T13:11:54;99737.16;;;16.37;27.51
43298;BME280;28892;55.640;37.532;2023-04-08T13:14:19;99734.06;;;16.26;27.60
43298;BME280;28892;55.640;37.532;2023-04-08T13:16:45;99726.88;;;16.13;27.53
43298;BME280;28892;55.640;37.532;2023-04-08T13:19:12;99736.94;;;16.25;27.80